Time,TemperatureF,DewpointF,PressureIn,WindDirection,WindDirectionDegrees,WindSpeedMPH,WindSpeedGustMPH,Humidity,HourlyPrecipIn,Conditions,Clouds,dailyrainin,SoftwareType,DateUTC
2013-01-25 08:00:00,54.9,54.0,30.07,SSW,212,0.0,255.0,96,0.00,,,0.00,,2013-01-25 16:00:00,
2013-01-25 08:10:00,55.8,55.0,30.07,SSE,165,0.0,3.0,96,0.00,,,0.00,,2013-01-25 16:10:00,
2013-01-25 08:20:00,57.8,57.0,30.07,SSE,165,0.0,1.0,96,0.00,,,0.00,,2013-01-25 16:20:00,
2013-01-25 08:30:00,58.3,57.0,30.06,SSE,165,0.0,1.0,96,0.00,,,0.00,,2013-01-25 16:30:00,
2013-01-25 08:40:00,59.5,58.0,30.06,South,169,0.0,4.0,96,0.00,,,0.00,,2013-01-25 16:40:00,
2013-01-25 08:50:00,61.7,60.0,30.06,South,169,0.0,2.0,93,0.00,,,0.00,,2013-01-25 16:50:00,
2013-01-25 09:00:00,62.8,57.0,30.06,ESE,111,4.0,7.0,80,0.00,,,0.00,,2013-01-25 17:00:00,
2013-01-25 09:10:00,63.7,56.0,30.06,ESE,117,1.0,7.0,76,0.00,,,0.00,,2013-01-25 17:10:00,
2013-01-25 09:20:00,65.0,57.0,30.06,ENE,67,4.0,9.0,74,0.00,,,0.00,,2013-01-25 17:20:00,
2013-01-25 09:30:00,65.3,55.0,30.07,SE,126,6.0,9.0,69,0.00,,,0.00,,2013-01-25 17:30:00,
2013-01-25 09:40:00,64.9,56.0,30.07,ESE,113,5.0,14.0,73,0.00,,,0.00,,2013-01-25 17:40:00,
2013-01-25 09:50:00,65.3,55.0,30.07,East,90,2.0,11.0,69,0.00,,,0.00,,2013-01-25 17:50:00,
2013-01-25 10:01:00,65.3,55.0,30.07,ESE,113,8.0,12.0,70,0.00,,,0.00,,2013-01-25 18:01:00,
2013-01-25 10:10:00,65.7,56.0,30.07,NNE,16,5.0,14.0,72,0.00,,,0.00,,2013-01-25 18:10:00,
2013-01-25 10:20:00,66.1,56.0,30.07,ENE,65,4.0,10.0,70,0.00,,,0.00,,2013-01-25 18:20:00,
2013-01-25 10:30:00,66.5,56.0,30.07,NE,50,2.0,10.0,70,0.00,,,0.00,,2013-01-25 18:30:00,
2013-01-25 10:40:00,66.8,55.0,30.07,ENE,58,3.0,11.0,67,0.00,,,0.00,,2013-01-25 18:40:00,
2013-01-25 10:50:00,65.5,55.0,30.07,NE,49,5.0,11.0,69,0.00,,,0.00,,2013-01-25 18:50:00,
2013-01-25 11:00:00,66.2,56.0,30.07,ESE,118,9.0,12.0,69,0.00,,,0.00,,2013-01-25 19:00:00,
2013-01-25 11:10:00,66.3,55.0,30.06,East,90,7.0,12.0,68,0.00,,,0.00,,2013-01-25 19:10:00,
2013-01-25 11:20:00,67.1,57.0,30.07,NNE,28,3.0,12.0,69,0.00,,,0.00,,2013-01-25 19:20:00,
2013-01-25 11:30:00,67.7,57.0,30.06,NE,36,3.0,9.0,68,0.00,,,0.00,,2013-01-25 19:30:00,
2013-01-25 11:40:00,67.5,57.0,30.05,NE,54,4.0,8.0,68,0.00,,,0.00,,2013-01-25 19:40:00,
2013-01-25 11:50:00,70.2,58.0,30.05,NE,36,4.0,10.0,65,0.00,,,0.00,,2013-01-25 19:50:00,
2013-01-25 12:00:00,71.0,57.0,30.04,NE,49,3.0,12.0,62,0.00,,,0.00,,2013-01-25 20:00:00,
2013-01-25 12:10:00,69.4,55.0,30.03,ESE,102,4.0,13.0,60,0.00,,,0.00,,2013-01-25 20:10:00,
2013-01-25 12:20:00,68.5,55.0,30.03,ESE,120,7.0,10.0,63,0.00,,,0.00,,2013-01-25 20:20:00,
2013-01-25 12:30:00,71.0,58.0,30.02,North,5,0.0,7.0,63,0.00,,,0.00,,2013-01-25 20:30:00,
2013-01-25 12:40:00,71.7,55.0,30.01,ESE,116,9.0,11.0,56,0.00,,,0.00,,2013-01-25 20:40:00,
2013-01-25 12:50:00,68.4,56.0,30.01,WSW,247,2.0,7.0,65,0.00,,,0.00,,2013-01-25 20:50:00,
2013-01-25 13:00:00,69.4,59.0,30.00,NW,309,0.0,4.0,69,0.00,,,0.00,,2013-01-25 21:00:00,
2013-01-25 13:10:00,70.0,56.0,30.00,West,277,3.0,5.0,62,0.00,,,0.00,,2013-01-25 21:10:00,
2013-01-25 13:20:00,70.0,56.0,29.99,West,278,0.0,3.0,62,0.00,,,0.00,,2013-01-25 21:20:00,
2013-01-25 13:30:00,69.7,57.0,29.99,West,260,2.0,9.0,65,0.00,,,0.00,,2013-01-25 21:30:00,
2013-01-25 13:40:00,67.4,56.0,29.99,West,268,6.0,11.0,67,0.00,,,0.00,,2013-01-25 21:40:00,
2013-01-25 13:50:00,66.7,58.0,29.98,SW,224,3.0,9.0,73,0.00,,,0.00,,2013-01-25 21:50:00,
2013-01-25 14:00:00,67.7,57.0,29.98,West,281,3.0,9.0,69,0.00,,,0.00,,2013-01-25 22:00:00,
2013-01-25 14:10:00,68.5,57.0,29.97,SSW,203,5.0,6.0,66,0.00,,,0.00,,2013-01-25 22:10:00,
2013-01-25 14:20:00,68.4,57.0,29.97,WSW,253,5.0,9.0,67,0.00,,,0.00,,2013-01-25 22:20:00,
2013-01-25 14:30:00,67.5,57.0,29.97,West,279,5.0,9.0,69,0.00,,,0.00,,2013-01-25 22:30:00,
2013-01-25 14:40:00,67.1,57.0,29.97,WSW,242,7.0,9.0,69,0.00,,,0.00,,2013-01-25 22:40:00,
2013-01-25 14:50:00,67.6,56.0,29.98,WSW,254,7.0,10.0,67,0.00,,,0.00,,2013-01-25 22:50:00,
2013-01-25 15:00:00,66.5,56.0,29.98,WSW,244,8.0,13.0,68,0.00,,,0.00,,2013-01-25 23:00:00,
2013-01-25 15:10:00,66.6,56.0,29.98,WSW,255,10.0,12.0,68,0.00,,,0.00,,2013-01-25 23:10:00,
2013-01-25 15:20:00,66.1,56.0,29.98,WSW,244,7.0,13.0,69,0.00,,,0.00,,2013-01-25 23:20:00,
2013-01-25 15:30:00,64.8,55.0,29.97,WSW,258,12.0,13.0,71,0.00,,,0.00,,2013-01-25 23:30:00,
2013-01-25 15:40:00,63.4,55.0,29.97,West,265,5.0,10.0,74,0.00,,,0.00,,2013-01-25 23:40:00,
2013-01-25 15:50:00,63.4,56.0,29.97,WSW,258,4.0,7.0,76,0.00,,,0.00,,2013-01-25 23:50:00,
2013-01-25 16:00:00,63.9,56.0,29.96,West,269,3.0,4.0,76,0.00,,,0.00,,2013-01-26 00:00:00,
2013-01-25 16:10:00,63.8,56.0,29.96,WSW,244,3.0,5.0,76,0.00,,,0.00,,2013-01-26 00:10:00,
2013-01-25 16:20:00,62.8,56.0,29.96,WSW,244,1.0,3.0,78,0.00,,,0.00,,2013-01-26 00:20:00,
2013-01-25 16:30:00,61.6,55.0,29.96,WSW,244,2.0,2.0,80,0.00,,,0.00,,2013-01-26 00:30:00,
2013-01-25 16:40:00,60.7,55.0,29.96,WSW,244,1.0,2.0,82,0.00,,,0.00,,2013-01-26 00:40:00,
2013-01-25 16:50:00,59.8,55.0,29.96,WSW,244,1.0,2.0,84,0.00,,,0.00,,2013-01-26 00:50:00,
2013-01-25 17:00:00,59.0,55.0,29.96,WSW,244,1.0,2.0,85,0.00,,,0.00,,2013-01-26 01:00:00,
2013-01-25 17:10:00,58.7,55.0,29.96,SW,232,5.0,7.0,86,0.00,,,0.00,,2013-01-26 01:10:00,
2013-01-25 17:20:00,59.0,54.0,29.97,South,186,0.0,8.0,84,0.00,,,0.00,,2013-01-26 01:20:00,
2013-01-25 17:30:00,58.7,54.0,29.97,SE,144,0.0,5.0,84,0.00,,,0.00,,2013-01-26 01:30:00,
2013-01-25 17:40:00,57.5,53.0,29.97,SSE,156,2.0,2.0,85,0.00,,,0.00,,2013-01-26 01:40:00,
2013-01-25 17:50:00,56.7,53.0,29.98,SSE,157,0.0,2.0,87,0.00,,,0.00,,2013-01-26 01:50:00,
2013-01-25 18:00:00,56.6,53.0,29.98,SSE,157,1.0,1.0,88,0.00,,,0.00,,2013-01-26 02:00:00,
2013-01-25 18:10:00,56.5,53.0,29.98,SSE,157,1.0,1.0,89,0.00,,,0.00,,2013-01-26 02:10:00,
2013-01-25 18:20:00,56.5,53.0,29.98,SSE,157,0.0,3.0,88,0.00,,,0.00,,2013-01-26 02:20:00,
2013-01-25 18:30:00,56.3,53.0,29.98,SSE,157,1.0,1.0,89,0.00,,,0.00,,2013-01-26 02:30:00,
2013-01-25 18:40:00,56.2,53.0,29.97,SSE,157,1.0,2.0,89,0.00,,,0.00,,2013-01-26 02:40:00,
2013-01-25 18:50:00,55.9,53.0,29.97,SSE,157,0.0,1.0,89,0.00,,,0.00,,2013-01-26 02:50:00,
2013-01-25 19:00:00,55.5,52.0,29.98,SSE,157,0.0,3.0,89,0.00,,,0.00,,2013-01-26 03:00:00,
2013-01-25 19:10:00,55.8,53.0,29.98,SE,126,2.0,4.0,89,0.00,,,0.00,,2013-01-26 03:10:00,
2013-01-25 19:20:00,55.5,52.0,29.98,SSW,200,2.0,3.0,88,0.00,,,0.00,,2013-01-26 03:20:00,
2013-01-25 19:30:00,55.4,52.0,29.98,SW,220,0.0,3.0,89,0.00,,,0.00,,2013-01-26 03:30:00,
2013-01-25 19:40:00,55.7,52.0,29.98,SW,220,2.0,3.0,88,0.00,,,0.00,,2013-01-26 03:40:00,
2013-01-25 19:50:00,55.5,52.0,29.98,SW,220,0.0,2.0,88,0.00,,,0.00,,2013-01-26 03:50:00,
2013-01-25 20:00:00,55.0,52.0,29.98,SW,220,0.0,2.0,88,0.00,,,0.00,,2013-01-26 04:00:00,
2013-01-25 20:10:00,54.9,52.0,29.98,NNW,327,0.0,3.0,89,0.00,,,0.00,,2013-01-26 04:10:00,
2013-01-25 20:20:00,55.2,52.0,29.98,NE,35,1.0,2.0,90,0.00,,,0.00,,2013-01-26 04:20:00,
2013-01-25 20:30:00,56.3,52.0,29.98,NE,54,0.0,3.0,87,0.00,,,0.00,,2013-01-26 04:30:00,
2013-01-25 20:40:00,56.6,52.0,29.98,NE,54,2.0,3.0,86,0.00,,,0.00,,2013-01-26 04:40:00,
2013-01-25 20:50:00,57.6,53.0,29.98,NE,54,1.0,4.0,85,0.00,,,0.00,,2013-01-26 04:50:00,
2013-01-25 21:00:00,57.2,53.0,29.97,SE,139,4.0,4.0,85,0.00,,,0.00,,2013-01-26 05:00:00,
2013-01-25 21:10:00,58.5,53.0,29.97,South,173,2.0,4.0,83,0.00,,,0.00,,2013-01-26 05:10:00,
2013-01-25 21:20:00,57.6,53.0,29.97,SSW,213,4.0,5.0,84,0.00,,,0.00,,2013-01-26 05:20:00,
2013-01-25 21:30:00,57.3,53.0,29.98,SW,236,0.0,5.0,85,0.00,,,0.00,,2013-01-26 05:30:00,
2013-01-25 21:40:00,56.3,52.0,29.98,SW,236,3.0,3.0,85,0.00,,,0.00,,2013-01-26 05:40:00,
2013-01-25 21:50:00,55.7,52.0,29.97,SW,236,1.0,3.0,87,0.00,,,0.00,,2013-01-26 05:50:00,
2013-01-25 22:00:00,56.7,53.0,29.98,East,99,0.0,3.0,86,0.00,,,0.00,,2013-01-26 06:00:00,
2013-01-25 22:10:00,58.7,53.0,29.98,ESE,108,2.0,7.0,82,0.00,,,0.00,,2013-01-26 06:10:00,
2013-01-25 22:20:00,59.0,53.0,29.98,SE,125,1.0,5.0,79,0.00,,,0.00,,2013-01-26 06:20:00,
2013-01-25 22:30:00,56.6,52.0,29.98,SSW,213,2.0,4.0,84,0.00,,,0.00,,2013-01-26 06:30:00,
2013-01-25 22:40:00,55.4,51.0,29.98,SSW,213,0.0,3.0,85,0.00,,,0.00,,2013-01-26 06:40:00,
2013-01-25 22:50:00,55.9,52.0,29.98,WSW,252,4.0,9.0,87,0.00,,,0.00,,2013-01-26 06:50:00,
2013-01-25 23:00:00,56.3,52.0,29.98,West,259,2.0,5.0,86,0.00,,,0.00,,2013-01-26 07:00:00,
2013-01-25 23:10:00,55.9,52.0,29.98,West,260,0.0,3.0,86,0.00,,,0.00,,2013-01-26 07:10:00,
2013-01-25 23:20:00,55.5,52.0,29.97,West,260,1.0,1.0,87,0.00,,,0.00,,2013-01-26 07:20:00,
2013-01-25 23:30:00,54.6,51.0,29.97,SE,138,0.0,3.0,88,0.00,,,0.00,,2013-01-26 07:30:00,
2013-01-25 23:40:00,53.9,50.0,29.98,SSW,209,3.0,3.0,88,0.00,,,0.00,,2013-01-26 07:40:00,
2013-01-25 23:50:00,52.9,50.0,29.98,SSW,209,3.0,3.0,89,0.00,,,0.00,,2013-01-26 07:50:00,